WIF1E ENHD-ENBR
Flight info
| Callsign | WIF1E |
|---|---|
| Flight time | 0h 17m |
| Altitude | 12000 |
| Route | GENVU |
| Aircraft | DH8D/M-SDFGRY/SB1 |
Departure
| Time | 2026-04-27 00:36 |
|---|---|
| Airport | Haugesund Airport, Karmøy (ENHD) |
Arrival
| Time | 2026-04-27 00:54 |
|---|---|
| Airport | Bergen Airport, Flesland (ENBR) |
| Time | Latitude | Longitude | Altitude | Speed | Heading |
|---|---|---|---|---|---|
| 2026-04-27 00:14 | 59.34395 | 5.21661 | 82 ft | 0 kts | 44° |
| 2026-04-27 00:33 | 59.34395 | 5.21660 | 82 ft | 1 kts | 44° |
| 2026-04-27 00:33 | 59.34381 | 5.21634 | 82 ft | 2 kts | 46° |
| 2026-04-27 00:33 | 59.34364 | 5.21572 | 81 ft | 4 kts | 87° |
| 2026-04-27 00:33 | 59.34350 | 5.21587 | 82 ft | 6 kts | 158° |
| 2026-04-27 00:34 | 59.34293 | 5.21522 | 82 ft | 11 kts | 224° |
| 2026-04-27 00:34 | 59.34224 | 5.21462 | 82 ft | 13 kts | 156° |
| 2026-04-27 00:34 | 59.34133 | 5.21624 | 83 ft | 21 kts | 134° |
| 2026-04-27 00:34 | 59.34021 | 5.21849 | 85 ft | 25 kts | 134° |
| 2026-04-27 00:35 | 59.33892 | 5.22107 | 87 ft | 27 kts | 134° |
| 2026-04-27 00:35 | 59.33796 | 5.22312 | 88 ft | 14 kts | 115° |
| 2026-04-27 00:35 | 59.33767 | 5.22321 | 88 ft | 8 kts | 322° |
| 2026-04-27 00:35 | 59.33828 | 5.22237 | 88 ft | 16 kts | 314° |
| 2026-04-27 00:36 | 59.34098 | 5.21692 | 84 ft | 99 kts | 314° |
| 2026-04-27 00:36 | 59.34708 | 5.20464 | 250 ft | 139 kts | 316° |
| 2026-04-27 00:36 | 59.35444 | 5.19096 | 765 ft | 155 kts | 319° |
| 2026-04-27 00:36 | 59.36236 | 5.17643 | 1427 ft | 163 kts | 318° |
| 2026-04-27 00:37 | 59.37060 | 5.16117 | 2192 ft | 166 kts | 318° |
| 2026-04-27 00:37 | 59.37993 | 5.14810 | 2959 ft | 166 kts | 334° |
| 2026-04-27 00:37 | 59.39052 | 5.13877 | 3599 ft | 170 kts | 337° |
| 2026-04-27 00:37 | 59.40124 | 5.12956 | 4254 ft | 172 kts | 337° |
| 2026-04-27 00:38 | 59.41218 | 5.12017 | 4911 ft | 174 kts | 337° |
| 2026-04-27 00:38 | 59.42323 | 5.11067 | 5538 ft | 176 kts | 337° |
| 2026-04-27 00:38 | 59.43429 | 5.10116 | 6150 ft | 178 kts | 337° |
| 2026-04-27 00:38 | 59.44570 | 5.09132 | 6766 ft | 180 kts | 337° |
| 2026-04-27 00:39 | 59.45703 | 5.08151 | 7365 ft | 182 kts | 336° |
| 2026-04-27 00:39 | 59.46853 | 5.07153 | 7984 ft | 184 kts | 336° |
| 2026-04-27 00:39 | 59.48090 | 5.06076 | 8220 ft | 210 kts | 336° |
| 2026-04-27 00:39 | 59.49476 | 5.04854 | 8534 ft | 224 kts | 335° |
| 2026-04-27 00:40 | 59.50908 | 5.03592 | 9038 ft | 229 kts | 335° |
| 2026-04-27 00:40 | 59.52361 | 5.02314 | 9579 ft | 232 kts | 335° |
| 2026-04-27 00:40 | 59.53831 | 5.01023 | 10128 ft | 235 kts | 335° |
| 2026-04-27 00:40 | 59.55323 | 4.99713 | 10676 ft | 237 kts | 335° |
| 2026-04-27 00:41 | 59.56821 | 4.98398 | 11217 ft | 239 kts | 335° |
| 2026-04-27 00:41 | 59.58335 | 4.97069 | 11801 ft | 238 kts | 335° |
| 2026-04-27 00:41 | 59.59831 | 4.95750 | 12171 ft | 240 kts | 335° |
| 2026-04-27 00:41 | 59.61399 | 4.94365 | 12305 ft | 252 kts | 335° |
| 2026-04-27 00:42 | 59.63068 | 4.93007 | 12336 ft | 266 kts | 342° |
| 2026-04-27 00:42 | 59.64946 | 4.92971 | 12364 ft | 280 kts | 8° |
| 2026-04-27 00:42 | 59.66869 | 4.93852 | 12348 ft | 290 kts | 11° |
| 2026-04-27 00:42 | 59.68840 | 4.94855 | 12338 ft | 298 kts | 13° |
| 2026-04-27 00:43 | 59.70808 | 4.96152 | 12334 ft | 303 kts | 14° |
| 2026-04-27 00:43 | 59.72870 | 4.97221 | 12329 ft | 306 kts | 11° |
| 2026-04-27 00:43 | 59.74952 | 4.98269 | 12130 ft | 315 kts | 12° |
| 2026-04-27 00:43 | 59.77027 | 4.99333 | 11744 ft | 304 kts | 12° |
| 2026-04-27 00:44 | 59.79057 | 5.00390 | 11341 ft | 302 kts | 12° |
| 2026-04-27 00:44 | 59.81047 | 5.01439 | 10923 ft | 300 kts | 12° |
| 2026-04-27 00:44 | 59.83075 | 5.02519 | 10492 ft | 299 kts | 12° |
| 2026-04-27 00:44 | 59.85048 | 5.03577 | 10072 ft | 298 kts | 12° |
| 2026-04-27 00:45 | 59.87055 | 5.04661 | 9641 ft | 296 kts | 13° |
| 2026-04-27 00:45 | 59.89020 | 5.05725 | 8973 ft | 291 kts | 13° |
| 2026-04-27 00:45 | 59.90917 | 5.06757 | 8503 ft | 279 kts | 13° |
| 2026-04-27 00:45 | 59.92734 | 5.07753 | 8095 ft | 264 kts | 13° |
| 2026-04-27 00:46 | 59.94447 | 5.08693 | 7725 ft | 252 kts | 13° |
| 2026-04-27 00:46 | 59.96095 | 5.09597 | 7374 ft | 240 kts | 13° |
| 2026-04-27 00:46 | 59.97656 | 5.10452 | 7047 ft | 233 kts | 13° |
| 2026-04-27 00:46 | 59.99222 | 5.11315 | 6719 ft | 231 kts | 14° |
| 2026-04-27 00:47 | 60.00748 | 5.12155 | 6396 ft | 230 kts | 14° |
| 2026-04-27 00:47 | 60.02286 | 5.13002 | 6074 ft | 230 kts | 14° |
| 2026-04-27 00:47 | 60.03838 | 5.13860 | 5742 ft | 232 kts | 14° |
| 2026-04-27 00:47 | 60.05391 | 5.14717 | 5409 ft | 232 kts | 14° |
| 2026-04-27 00:48 | 60.06909 | 5.15702 | 5026 ft | 232 kts | 26° |
| 2026-04-27 00:48 | 60.08035 | 5.17932 | 4724 ft | 228 kts | 57° |
| 2026-04-27 00:48 | 60.08827 | 5.20674 | 4399 ft | 228 kts | 60° |
| 2026-04-27 00:48 | 60.09590 | 5.23394 | 4074 ft | 223 kts | 60° |
| 2026-04-27 00:49 | 60.10397 | 5.25976 | 3652 ft | 218 kts | 47° |
| 2026-04-27 00:49 | 60.11665 | 5.27230 | 3373 ft | 203 kts | 4° |
| 2026-04-27 00:49 | 60.13018 | 5.26938 | 3361 ft | 186 kts | 351° |
| 2026-04-27 00:49 | 60.14233 | 5.26658 | 3196 ft | 170 kts | 355° |
| 2026-04-27 00:50 | 60.15371 | 5.26402 | 2880 ft | 159 kts | 353° |
| 2026-04-27 00:50 | 60.17453 | 5.25777 | 2418 ft | 147 kts | 352° |
| 2026-04-27 00:50 | 60.18450 | 5.25459 | 2230 ft | 146 kts | 352° |
| 2026-04-27 00:51 | 60.19452 | 5.25134 | 2044 ft | 145 kts | 352° |
| 2026-04-27 00:51 | 60.20440 | 5.24805 | 1831 ft | 142 kts | 351° |
| 2026-04-27 00:51 | 60.21386 | 5.24483 | 1601 ft | 134 kts | 351° |
| 2026-04-27 00:51 | 60.22309 | 5.24174 | 1437 ft | 133 kts | 351° |
| 2026-04-27 00:52 | 60.23232 | 5.23868 | 1255 ft | 134 kts | 351° |
| 2026-04-27 00:52 | 60.24149 | 5.23562 | 1068 ft | 134 kts | 351° |
| 2026-04-27 00:52 | 60.25071 | 5.23257 | 879 ft | 133 kts | 352° |
| 2026-04-27 00:52 | 60.25975 | 5.22955 | 694 ft | 133 kts | 351° |
| 2026-04-27 00:53 | 60.26893 | 5.22643 | 505 ft | 133 kts | 351° |
| 2026-04-27 00:53 | 60.27795 | 5.22331 | 284 ft | 132 kts | 351° |
| 2026-04-27 00:53 | 60.28698 | 5.22029 | 169 ft | 118 kts | 351° |
| 2026-04-27 00:53 | 60.29305 | 5.21825 | 166 ft | 69 kts | 351° |
| 2026-04-27 00:54 | 60.29661 | 5.21710 | 163 ft | 17 kts | 358° |
| 2026-04-27 00:54 | 60.29712 | 5.21871 | 162 ft | 13 kts | 81° |
| 2026-04-27 00:54 | 60.29683 | 5.22018 | 162 ft | 12 kts | 162° |
| 2026-04-27 00:54 | 60.29581 | 5.22053 | 163 ft | 18 kts | 170° |
| 2026-04-27 00:55 | 60.29434 | 5.22103 | 165 ft | 22 kts | 169° |
| 2026-04-27 00:55 | 60.29273 | 5.22158 | 168 ft | 22 kts | 170° |
| 2026-04-27 00:55 | 60.29131 | 5.22206 | 171 ft | 18 kts | 168° |
| 2026-04-27 00:55 | 60.29002 | 5.22249 | 172 ft | 18 kts | 170° |
| 2026-04-27 00:56 | 60.28944 | 5.22385 | 173 ft | 12 kts | 77° |
| 2026-04-27 00:56 | 60.28933 | 5.22515 | 174 ft | 6 kts | 107° |
| 2026-04-27 00:56 | 60.28927 | 5.22555 | 174 ft | 0 kts | 107° |